createdAt,value
2023-08-09T00:00:40.198Z,16.30
2023-08-09T00:03:07.186Z,16.30
2023-08-09T00:05:34.168Z,16.20
2023-08-09T00:08:01.050Z,16.20
2023-08-09T00:10:28.046Z,16.20
2023-08-09T00:12:54.937Z,16.20
2023-08-09T00:15:23.079Z,16.10
2023-08-09T00:17:49.994Z,16.10
2023-08-09T00:20:16.867Z,16.00
2023-08-09T00:22:43.806Z,15.90
2023-08-09T00:25:12.248Z,15.90
2023-08-09T00:27:39.382Z,15.90
2023-08-09T00:30:07.125Z,15.90
2023-08-09T00:32:34.078Z,15.80
2023-08-09T00:35:01.243Z,15.80
2023-08-09T00:37:28.156Z,15.70
2023-08-09T00:39:55.056Z,15.70
2023-08-09T00:42:21.935Z,15.70
2023-08-09T00:44:48.782Z,15.70
2023-08-09T00:47:15.758Z,15.70
2023-08-09T00:49:43.254Z,15.60
2023-08-09T00:52:10.182Z,15.60
2023-08-09T00:54:39.588Z,15.60
2023-08-09T00:57:07.392Z,15.60
2023-08-09T00:59:34.654Z,15.60
2023-08-09T01:02:01.774Z,15.50
2023-08-09T01:04:28.742Z,15.50
2023-08-09T01:07:18.511Z,15.50
2023-08-09T01:10:11.045Z,15.50
2023-08-09T01:12:58.100Z,15.50
2023-08-09T01:15:25.233Z,15.40
2023-08-09T01:17:53.121Z,15.40
2023-08-09T01:20:22.229Z,15.30
2023-08-09T01:23:00.842Z,15.30
2023-08-09T01:25:27.648Z,15.30
2023-08-09T01:27:54.574Z,15.30
2023-08-09T01:30:21.440Z,15.30
2023-08-09T01:32:48.280Z,15.20
2023-08-09T01:35:16.856Z,15.20
2023-08-09T01:37:56.075Z,15.20
2023-08-09T01:40:23.866Z,15.20
2023-08-09T01:42:52.445Z,15.10
2023-08-09T01:45:20.552Z,15.20
2023-08-09T01:47:49.600Z,15.10
2023-08-09T01:50:21.171Z,15.10
2023-08-09T01:52:48.231Z,15.10
2023-08-09T01:55:18.754Z,15.00
2023-08-09T01:57:47.326Z,15.00
2023-08-09T02:00:20.472Z,14.90
2023-08-09T02:02:49.117Z,14.90
2023-08-09T02:05:16.662Z,14.90
2023-08-09T02:07:43.607Z,14.90
2023-08-09T02:10:11.675Z,14.90
2023-08-09T02:12:39.339Z,14.90
2023-08-09T02:15:07.615Z,14.90
2023-08-09T02:17:35.756Z,14.90
2023-08-09T02:20:02.883Z,14.90
2023-08-09T02:22:36.342Z,14.90
2023-08-09T02:25:04.000Z,14.80
2023-08-09T02:27:31.132Z,14.90
2023-08-09T02:30:04.155Z,14.90
2023-08-09T02:32:32.369Z,14.90
2023-08-09T02:35:00.051Z,14.90
2023-08-09T02:37:28.048Z,14.90
2023-08-09T02:39:57.903Z,15.00
2023-08-09T02:42:25.026Z,14.90
2023-08-09T02:44:52.837Z,14.90
2023-08-09T02:47:19.771Z,14.90
2023-08-09T02:49:49.716Z,14.90
2023-08-09T02:52:16.570Z,14.90
2023-08-09T02:54:44.769Z,14.90
2023-08-09T02:57:11.998Z,14.90
2023-08-09T02:59:38.967Z,15.00
2023-08-09T03:02:07.189Z,15.00
2023-08-09T03:04:34.800Z,15.00
2023-08-09T03:07:02.107Z,15.00
2023-08-09T03:09:29.239Z,15.00
2023-08-09T03:11:56.329Z,15.00
2023-08-09T03:14:23.268Z,15.00
2023-08-09T03:16:50.133Z,15.10
2023-08-09T03:19:17.504Z,15.10
2023-08-09T03:21:47.826Z,15.10
2023-08-09T03:24:15.331Z,15.10
2023-08-09T03:26:43.241Z,15.10
2023-08-09T03:29:10.614Z,15.10
2023-08-09T03:31:37.879Z,15.10
2023-08-09T03:34:05.421Z,15.10
2023-08-09T03:36:32.609Z,15.20
2023-08-09T03:38:59.494Z,15.20
2023-08-09T03:41:30.006Z,15.20
2023-08-09T03:43:56.874Z,15.20
2023-08-09T03:46:24.905Z,15.20
2023-08-09T03:48:52.532Z,15.20
2023-08-09T03:51:19.613Z,15.20
2023-08-09T03:53:47.294Z,15.20
2023-08-09T03:56:14.305Z,15.20
2023-08-09T03:58:41.130Z,15.20
2023-08-09T04:01:08.214Z,15.20
2023-08-09T04:03:35.833Z,15.20
2023-08-09T04:06:03.967Z,15.20
2023-08-09T04:08:31.669Z,15.10
2023-08-09T04:10:59.087Z,15.10
2023-08-09T04:13:26.047Z,15.00
2023-08-09T04:15:53.205Z,15.00
2023-08-09T04:18:20.090Z,15.00
2023-08-09T04:20:46.973Z,15.00
2023-08-09T04:23:14.256Z,15.00
2023-08-09T04:25:41.427Z,15.00
2023-08-09T04:28:10.505Z,15.10
2023-08-09T04:30:38.765Z,15.10
2023-08-09T04:33:05.783Z,15.20
2023-08-09T04:35:33.004Z,15.20
2023-08-09T04:38:06.308Z,15.20
2023-08-09T04:40:33.399Z,15.20
2023-08-09T04:43:00.337Z,15.20
2023-08-09T04:45:27.486Z,15.30
2023-08-09T04:47:54.445Z,15.30
2023-08-09T04:50:21.546Z,15.40
2023-08-09T04:52:48.386Z,15.40
2023-08-09T04:55:15.294Z,15.40
2023-08-09T04:57:43.782Z,15.40
2023-08-09T05:00:11.650Z,15.40
2023-08-09T05:02:38.870Z,15.50
2023-08-09T05:05:07.360Z,15.40
2023-08-09T05:07:34.672Z,15.40
2023-08-09T05:10:02.229Z,15.30
2023-08-09T05:12:29.163Z,15.40
2023-08-09T05:14:56.033Z,15.30
2023-08-09T05:17:23.315Z,15.30
2023-08-09T05:19:50.374Z,15.40
2023-08-09T05:22:18.343Z,15.30
2023-08-09T05:24:45.355Z,15.30
2023-08-09T05:27:12.356Z,15.30
2023-08-09T05:29:39.171Z,15.30
2023-08-09T05:32:06.399Z,15.20
2023-08-09T05:34:33.423Z,15.20
2023-08-09T05:37:01.081Z,15.20
2023-08-09T05:39:32.736Z,15.20
2023-08-09T05:42:00.057Z,15.20
2023-08-09T05:44:27.706Z,15.20
2023-08-09T05:46:54.734Z,15.20
2023-08-09T05:49:24.446Z,15.10
2023-08-09T05:51:51.295Z,15.20
2023-08-09T05:54:18.550Z,15.20
2023-08-09T05:56:47.096Z,15.20
2023-08-09T05:59:14.035Z,15.20
2023-08-09T06:01:41.979Z,15.30
2023-08-09T06:04:09.141Z,15.30
2023-08-09T06:06:37.010Z,15.40
2023-08-09T06:09:07.731Z,15.40
2023-08-09T06:11:34.573Z,15.40
2023-08-09T06:14:01.543Z,15.40
2023-08-09T06:16:28.615Z,15.40
2023-08-09T06:18:55.985Z,15.40
2023-08-09T06:21:22.824Z,15.30
2023-08-09T06:23:49.823Z,15.40
2023-08-09T06:26:16.728Z,15.40
2023-08-09T06:28:43.541Z,15.40
2023-08-09T06:31:10.468Z,15.40
2023-08-09T06:33:43.718Z,15.40
2023-08-09T06:36:13.400Z,15.40
2023-08-09T06:38:40.250Z,15.40
2023-08-09T06:41:07.138Z,15.40
2023-08-09T06:43:34.164Z,15.30
2023-08-09T06:46:03.231Z,15.30
2023-08-09T06:48:30.777Z,15.30
2023-08-09T06:50:58.457Z,15.40
2023-08-09T06:53:25.642Z,15.40
2023-08-09T06:55:52.649Z,15.40
2023-08-09T06:58:19.657Z,15.40
2023-08-09T07:00:47.680Z,15.50
2023-08-09T07:03:14.895Z,15.50
2023-08-09T07:05:42.694Z,15.50
2023-08-09T07:08:09.704Z,15.60
2023-08-09T07:10:36.588Z,15.60
2023-08-09T07:13:03.753Z,15.60
2023-08-09T07:15:30.809Z,15.70
2023-08-09T07:17:57.974Z,15.80
2023-08-09T07:20:24.844Z,15.80
2023-08-09T07:22:53.870Z,15.90
2023-08-09T07:25:20.811Z,15.90
2023-08-09T07:27:48.757Z,15.90
2023-08-09T07:30:16.873Z,15.90
2023-08-09T07:32:44.368Z,16.00
2023-08-09T07:35:11.941Z,16.10
2023-08-09T07:37:41.704Z,16.20
2023-08-09T07:40:09.602Z,16.30
2023-08-09T07:42:36.938Z,16.40
2023-08-09T07:45:04.701Z,16.50
2023-08-09T07:47:31.743Z,16.70
2023-08-09T07:49:58.655Z,16.70
2023-08-09T07:52:27.485Z,16.80
2023-08-09T07:54:54.345Z,16.90
2023-08-09T07:57:21.204Z,17.00
2023-08-09T07:59:48.233Z,17.00
2023-08-09T08:02:15.107Z,17.10
2023-08-09T08:04:41.952Z,17.10
2023-08-09T08:07:10.994Z,17.10
2023-08-09T08:09:42.200Z,17.20
2023-08-09T08:12:21.408Z,17.20
2023-08-09T08:14:50.049Z,17.30
2023-08-09T08:17:16.943Z,17.30
2023-08-09T08:19:43.840Z,17.30
2023-08-09T08:22:10.771Z,17.30
2023-08-09T08:24:37.817Z,17.30
2023-08-09T08:27:04.806Z,17.40
2023-08-09T08:29:32.461Z,17.40
2023-08-09T08:31:59.542Z,17.50
2023-08-09T08:34:33.129Z,17.50
2023-08-09T08:37:00.676Z,17.50
2023-08-09T08:39:30.129Z,17.50
2023-08-09T08:41:58.126Z,17.60
2023-08-09T08:44:25.706Z,17.60
2023-08-09T08:46:52.932Z,17.70
2023-08-09T08:49:23.511Z,17.70
2023-08-09T08:51:53.944Z,17.80
2023-08-09T08:54:20.946Z,17.90
2023-08-09T08:56:49.640Z,18.00
2023-08-09T08:59:17.306Z,18.10
2023-08-09T09:01:44.613Z,18.20
2023-08-09T09:04:11.498Z,18.20
2023-08-09T09:06:38.522Z,18.30
2023-08-09T09:09:15.995Z,18.30
2023-08-09T09:11:46.083Z,18.30
2023-08-09T09:14:16.394Z,18.40
2023-08-09T09:16:44.258Z,18.50
2023-08-09T09:19:11.531Z,18.60
2023-08-09T09:21:41.201Z,18.70
2023-08-09T09:24:09.856Z,18.70
2023-08-09T09:26:38.325Z,18.90
2023-08-09T09:29:09.454Z,19.00
2023-08-09T09:31:40.031Z,19.00
2023-08-09T09:34:10.777Z,19.10
2023-08-09T09:36:49.780Z,19.20
2023-08-09T09:39:16.723Z,19.30
2023-08-09T09:41:51.770Z,19.40
2023-08-09T09:44:20.776Z,19.50
2023-08-09T09:46:51.260Z,19.60
2023-08-09T09:49:18.119Z,19.80
2023-08-09T09:51:45.211Z,20.00
2023-08-09T09:54:16.177Z,20.10
2023-08-09T09:56:43.080Z,20.30
2023-08-09T09:59:09.937Z,20.50
2023-08-09T10:01:38.121Z,20.70
2023-08-09T10:04:09.837Z,20.90
2023-08-09T10:06:40.581Z,21.10
2023-08-09T10:09:08.961Z,21.40
2023-08-09T10:11:36.037Z,21.60
2023-08-09T10:14:04.395Z,21.70
2023-08-09T10:16:31.264Z,21.70
2023-08-09T10:19:01.760Z,21.60
2023-08-09T10:21:28.673Z,21.70
2023-08-09T10:24:08.562Z,21.80
2023-08-09T10:26:37.878Z,22.00
2023-08-09T10:29:12.902Z,22.20
2023-08-09T10:31:45.457Z,22.30
2023-08-09T10:34:13.014Z,22.30
2023-08-09T10:36:41.455Z,22.20
2023-08-09T10:39:15.816Z,22.20
2023-08-09T10:41:56.035Z,22.30
2023-08-09T10:44:37.906Z,22.60
2023-08-09T10:47:20.300Z,22.80
2023-08-09T10:49:53.290Z,23.00
2023-08-09T10:52:24.359Z,23.10
2023-08-09T10:55:20.501Z,23.10
2023-08-09T10:57:51.512Z,23.10
2023-08-09T11:00:19.702Z,23.10
2023-08-09T11:02:50.760Z,23.20
2023-08-09T11:05:18.744Z,23.20
2023-08-09T11:07:50.630Z,23.30
2023-08-09T11:10:29.313Z,23.30
2023-08-09T11:12:56.202Z,23.30
2023-08-09T11:15:23.236Z,23.40
2023-08-09T11:17:50.743Z,23.60
2023-08-09T11:20:20.469Z,23.80
2023-08-09T11:22:57.682Z,23.90
2023-08-09T11:25:25.766Z,24.10
2023-08-09T11:27:54.252Z,24.10
2023-08-09T11:30:24.441Z,24.20
2023-08-09T11:33:05.325Z,24.40
2023-08-09T11:35:34.597Z,24.60
2023-08-09T11:38:01.567Z,24.60
2023-08-09T11:40:31.502Z,24.70
2023-08-09T11:43:01.393Z,24.80
2023-08-09T11:45:28.618Z,24.90
2023-08-09T11:47:56.012Z,25.00
2023-08-09T11:50:26.109Z,25.00
2023-08-09T11:52:56.206Z,25.00
2023-08-09T11:55:24.884Z,25.10
2023-08-09T11:57:51.912Z,25.30
2023-08-09T12:00:19.197Z,25.50
2023-08-09T12:02:46.310Z,25.70
2023-08-09T12:05:15.396Z,25.80
2023-08-09T12:07:43.268Z,25.90
2023-08-09T12:10:11.504Z,26.10
2023-08-09T12:12:42.856Z,26.20
2023-08-09T12:15:10.827Z,26.40
2023-08-09T12:17:39.051Z,26.60
2023-08-09T12:20:08.031Z,26.70
2023-08-09T12:22:35.071Z,26.80
2023-08-09T12:25:02.758Z,26.80
2023-08-09T12:27:30.289Z,26.90
2023-08-09T12:29:57.284Z,27.10
2023-08-09T12:32:24.721Z,27.20
2023-08-09T12:34:51.891Z,27.20
2023-08-09T12:37:19.011Z,27.10
2023-08-09T12:39:45.864Z,27.10
2023-08-09T12:42:13.229Z,27.20
2023-08-09T12:44:40.125Z,27.20
2023-08-09T12:47:08.940Z,27.20
2023-08-09T12:49:37.050Z,27.20
2023-08-09T12:52:04.453Z,27.20
2023-08-09T12:54:31.711Z,27.30
2023-08-09T12:56:58.609Z,27.40
2023-08-09T12:59:25.577Z,27.30
2023-08-09T13:01:52.496Z,27.40
2023-08-09T13:04:24.669Z,27.70
2023-08-09T13:06:52.514Z,28.10
2023-08-09T13:09:19.465Z,28.50
2023-08-09T13:11:49.398Z,28.60
2023-08-09T13:14:16.322Z,28.80
2023-08-09T13:16:43.290Z,29.10
2023-08-09T13:19:10.298Z,29.30
2023-08-09T13:21:37.130Z,29.50
2023-08-09T13:24:06.961Z,29.40
2023-08-09T13:26:35.449Z,29.10
2023-08-09T13:29:02.913Z,29.10
2023-08-09T13:31:31.440Z,29.30
2023-08-09T13:33:58.730Z,29.70
2023-08-09T13:36:26.395Z,30.10
2023-08-09T13:38:53.311Z,30.50
2023-08-09T13:41:20.302Z,30.90
2023-08-09T13:43:47.363Z,31.00
2023-08-09T13:46:14.369Z,31.30
2023-08-09T13:48:42.914Z,31.60
2023-08-09T13:51:10.674Z,31.60
2023-08-09T13:53:37.555Z,31.60
2023-08-09T13:56:04.444Z,31.80
2023-08-09T13:58:31.386Z,32.00
2023-08-09T14:00:58.502Z,32.50
2023-08-09T14:03:25.579Z,32.90
2023-08-09T14:05:53.285Z,33.10
2023-08-09T14:08:20.319Z,33.30
2023-08-09T14:10:47.732Z,33.20
2023-08-09T14:13:14.659Z,33.30
2023-08-09T14:15:41.684Z,33.50
2023-08-09T14:18:09.225Z,33.90
2023-08-09T14:20:36.907Z,34.30
2023-08-09T14:23:06.029Z,34.50
2023-08-09T14:25:33.343Z,34.40
2023-08-09T14:28:00.271Z,34.30
2023-08-09T14:30:27.476Z,34.60
2023-08-09T14:32:54.526Z,34.90
2023-08-09T14:35:22.643Z,35.20
2023-08-09T14:37:49.589Z,35.10
2023-08-09T14:40:16.646Z,35.00
2023-08-09T14:42:45.273Z,35.10
2023-08-09T14:45:13.762Z,35.40
2023-08-09T14:47:40.901Z,35.70
2023-08-09T14:50:09.166Z,36.10
2023-08-09T14:52:36.455Z,36.60
2023-08-09T14:55:03.428Z,36.70
2023-08-09T14:57:30.413Z,36.80
2023-08-09T14:59:57.350Z,36.80
2023-08-09T15:02:24.227Z,36.20
2023-08-09T15:04:51.099Z,35.90
2023-08-09T15:07:18.003Z,35.80
2023-08-09T15:09:45.113Z,36.00
2023-08-09T15:12:12.130Z,36.30
2023-08-09T15:14:40.394Z,36.70
2023-08-09T15:17:23.630Z,36.80
2023-08-09T15:19:53.241Z,36.80
2023-08-09T15:22:20.605Z,36.90
2023-08-09T15:24:47.676Z,36.80
2023-08-09T15:27:14.778Z,36.60
2023-08-09T15:29:41.634Z,36.50
2023-08-09T15:32:08.484Z,36.40
2023-08-09T15:34:35.410Z,36.60
2023-08-09T15:37:02.575Z,36.90
2023-08-09T15:39:34.094Z,36.90
2023-08-09T15:42:15.927Z,36.60
2023-08-09T15:44:44.634Z,36.20
2023-08-09T15:47:12.697Z,36.20
2023-08-09T15:49:39.930Z,36.30
2023-08-09T15:52:07.830Z,36.30
2023-08-09T15:54:37.702Z,36.40
2023-08-09T15:57:04.812Z,36.60
2023-08-09T15:59:32.911Z,36.80
2023-08-09T16:02:00.107Z,36.80
2023-08-09T16:04:27.450Z,36.80
2023-08-09T16:06:54.922Z,36.80
2023-08-09T16:09:25.273Z,36.70
2023-08-09T16:11:52.155Z,36.10
2023-08-09T16:14:20.017Z,35.40
2023-08-09T16:16:46.970Z,34.60
2023-08-09T16:19:14.397Z,33.50
2023-08-09T16:21:45.554Z,32.70
2023-08-09T16:24:13.374Z,32.20
2023-08-09T16:26:40.238Z,31.60
2023-08-09T16:29:08.488Z,31.40
2023-08-09T16:31:36.758Z,31.60
2023-08-09T16:34:03.713Z,31.80
2023-08-09T16:36:30.557Z,32.10
2023-08-09T16:38:57.400Z,32.50
2023-08-09T16:41:24.364Z,32.80
2023-08-09T16:43:53.744Z,32.90
2023-08-09T16:46:20.759Z,32.80
2023-08-09T16:48:50.643Z,32.80
2023-08-09T16:51:17.823Z,32.80
2023-08-09T16:53:45.902Z,32.80
2023-08-09T16:56:12.730Z,32.90
2023-08-09T16:58:39.658Z,32.70
2023-08-09T17:01:06.561Z,32.30
2023-08-09T17:03:33.651Z,31.90
2023-08-09T17:06:00.585Z,31.80
2023-08-09T17:08:28.342Z,31.90
2023-08-09T17:10:56.414Z,32.10
2023-08-09T17:13:23.251Z,32.40
2023-08-09T17:15:50.446Z,32.40
2023-08-09T17:18:17.290Z,32.50
2023-08-09T17:20:44.163Z,32.70
2023-08-09T17:23:12.132Z,33.00
2023-08-09T17:25:39.171Z,33.30
2023-08-09T17:28:06.169Z,33.40
2023-08-09T17:30:33.034Z,33.20
2023-08-09T17:33:00.054Z,33.10
2023-08-09T17:35:27.465Z,33.10
2023-08-09T17:37:54.867Z,33.00
2023-08-09T17:40:21.926Z,33.00
2023-08-09T17:42:48.909Z,32.80
2023-08-09T17:45:23.708Z,32.60
2023-08-09T17:47:53.661Z,32.30
2023-08-09T17:50:20.964Z,32.10
2023-08-09T17:52:49.417Z,31.80
2023-08-09T17:55:18.054Z,31.40
2023-08-09T17:57:45.130Z,31.10
2023-08-09T18:00:21.845Z,30.80
2023-08-09T18:02:49.202Z,30.40
2023-08-09T18:05:17.935Z,29.90
2023-08-09T18:07:45.810Z,29.30
2023-08-09T18:10:16.702Z,28.70
2023-08-09T18:12:43.697Z,28.10
2023-08-09T18:15:10.977Z,27.70
2023-08-09T18:17:39.670Z,27.30
2023-08-09T18:20:12.969Z,27.00
2023-08-09T18:22:41.346Z,26.70
2023-08-09T18:25:08.581Z,26.50
2023-08-09T18:27:36.545Z,26.30
2023-08-09T18:30:06.131Z,26.10
2023-08-09T18:32:33.989Z,25.80
2023-08-09T18:35:16.243Z,25.70
2023-08-09T18:37:43.848Z,25.50
2023-08-09T18:40:11.095Z,25.30
2023-08-09T18:42:38.376Z,25.20
2023-08-09T18:45:06.200Z,24.90
2023-08-09T18:47:33.790Z,24.70
2023-08-09T18:50:00.850Z,24.60
2023-08-09T18:52:27.768Z,24.40
2023-08-09T18:54:54.602Z,24.30
2023-08-09T18:57:21.427Z,24.20
2023-08-09T18:59:51.050Z,24.10
2023-08-09T19:02:18.880Z,24.00
2023-08-09T19:04:45.884Z,23.90
2023-08-09T19:07:12.768Z,23.70
2023-08-09T19:09:40.976Z,23.60
2023-08-09T19:12:08.109Z,23.50
2023-08-09T19:14:34.977Z,23.40
2023-08-09T19:17:03.462Z,23.20
2023-08-09T19:19:31.069Z,23.10
2023-08-09T19:21:57.986Z,23.00
2023-08-09T19:24:24.923Z,22.90
2023-08-09T19:26:51.765Z,22.90
2023-08-09T19:29:18.715Z,22.80
2023-08-09T19:31:45.654Z,22.60
2023-08-09T19:34:12.638Z,22.50
2023-08-09T19:36:39.458Z,22.40
2023-08-09T19:39:06.283Z,22.30
2023-08-09T19:41:33.138Z,22.20
2023-08-09T19:44:00.025Z,22.10
2023-08-09T19:46:27.393Z,21.90
2023-08-09T19:48:54.542Z,21.80
2023-08-09T19:51:21.515Z,21.70
2023-08-09T19:53:48.519Z,21.70
2023-08-09T19:56:16.402Z,21.60
2023-08-09T19:58:43.328Z,21.50
2023-08-09T20:01:11.992Z,21.50
2023-08-09T20:03:39.268Z,21.40
2023-08-09T20:06:06.717Z,21.40
2023-08-09T20:08:34.885Z,21.30
2023-08-09T20:11:02.325Z,21.20
2023-08-09T20:13:29.361Z,21.20
2023-08-09T20:15:57.615Z,21.10
2023-08-09T20:18:24.654Z,21.10
2023-08-09T20:20:55.746Z,21.10
2023-08-09T20:23:23.281Z,21.00
2023-08-09T20:25:52.192Z,21.00
2023-08-09T20:28:19.239Z,20.90
2023-08-09T20:30:46.359Z,20.80
2023-08-09T20:33:13.441Z,20.80
2023-08-09T20:35:43.227Z,20.70
2023-08-09T20:38:10.266Z,20.70
2023-08-09T20:40:42.865Z,20.60
2023-08-09T20:43:09.832Z,20.60
2023-08-09T20:45:36.979Z,20.60
2023-08-09T20:48:04.208Z,20.60
2023-08-09T20:50:31.302Z,20.60
2023-08-09T20:52:58.288Z,20.60
2023-08-09T20:55:25.410Z,20.60
2023-08-09T20:57:52.407Z,20.50
2023-08-09T21:00:19.569Z,20.50
2023-08-09T21:02:46.534Z,20.40
2023-08-09T21:05:13.486Z,20.40
2023-08-09T21:07:40.820Z,20.30
2023-08-09T21:10:08.544Z,20.30
2023-08-09T21:12:38.920Z,20.30
2023-08-09T21:15:06.752Z,20.20
2023-08-09T21:17:35.610Z,20.20
2023-08-09T21:20:02.525Z,20.20
2023-08-09T21:22:29.471Z,20.10
2023-08-09T21:27:26.415Z,20.00
2023-08-09T21:29:53.649Z,20.00
2023-08-09T21:32:20.777Z,20.00
2023-08-09T21:34:47.628Z,19.80
2023-08-09T21:37:14.628Z,19.80
2023-08-09T21:39:41.466Z,19.80
2023-08-09T21:42:09.304Z,19.80
2023-08-09T21:44:36.218Z,19.70
2023-08-09T21:47:03.377Z,19.70
2023-08-09T21:49:30.982Z,19.70
2023-08-09T21:51:58.919Z,19.70
2023-08-09T21:54:26.164Z,19.70
2023-08-09T21:56:53.045Z,19.70
2023-08-09T21:59:19.968Z,19.60
2023-08-09T22:01:46.948Z,19.60
2023-08-09T22:04:13.916Z,19.60
2023-08-09T22:06:40.774Z,19.60
2023-08-09T22:09:07.657Z,19.60
2023-08-09T22:11:34.616Z,19.60
2023-08-09T22:14:03.129Z,19.60
2023-08-09T22:16:30.229Z,19.60
2023-08-09T22:18:57.342Z,19.50
2023-08-09T22:21:26.449Z,19.50
2023-08-09T22:23:53.434Z,19.50
2023-08-09T22:26:21.453Z,19.50
2023-08-09T22:28:48.551Z,19.40
2023-08-09T22:31:15.938Z,19.40
2023-08-09T22:33:42.816Z,19.40
2023-08-09T22:36:12.602Z,19.30
2023-08-09T22:38:39.857Z,19.30
2023-08-09T22:41:06.710Z,19.30
2023-08-09T22:43:33.602Z,19.20
2023-08-09T22:46:00.614Z,19.20
2023-08-09T22:48:27.472Z,19.20
2023-08-09T22:50:55.051Z,19.10
2023-08-09T22:53:25.403Z,19.10
2023-08-09T22:55:55.459Z,19.10
2023-08-09T22:58:22.998Z,19.10
2023-08-09T23:00:51.099Z,19.10
2023-08-09T23:03:18.660Z,19.10
2023-08-09T23:05:45.695Z,19.00
2023-08-09T23:08:12.741Z,19.00
2023-08-09T23:10:40.365Z,19.00
2023-08-09T23:13:07.276Z,19.00
2023-08-09T23:15:34.130Z,19.00
2023-08-09T23:18:01.046Z,19.00
2023-08-09T23:20:28.884Z,19.00
2023-08-09T23:22:57.447Z,19.00
2023-08-09T23:25:24.475Z,19.00
2023-08-09T23:27:51.321Z,19.00
2023-08-09T23:30:18.688Z,19.00
2023-08-09T23:32:46.103Z,18.90
2023-08-09T23:35:13.744Z,18.90
2023-08-09T23:37:40.695Z,18.90
2023-08-09T23:40:11.088Z,18.80
2023-08-09T23:42:38.426Z,18.80
2023-08-09T23:45:05.850Z,18.80
2023-08-09T23:47:33.258Z,18.80
2023-08-09T23:50:00.197Z,18.80
2023-08-09T23:52:28.994Z,18.70
2023-08-09T23:54:58.641Z,18.70
2023-08-09T23:57:25.569Z,18.60
2023-08-09T23:59:55.127Z,18.50
